Time;durP1;ratioP1;P1;durP2;ratioP2;P2;SDS_P1;SDS_P2;PMS_P1;PMS_P2;Temp;Humidity;BMP_temperature;BMP_pressure;BME280_temperature;BME280_humidity;BME280_pressure;Samples;Min_cycle;Max_cycle;Signal;HPM_P1;HPM_P2
2024/02/12 00:00:36;;;;;;;41.38;19.83;;;7.50;99.90;;;11.71;100.00;98739.09;5029857;28;20365;-80
2024/02/12 00:03:03;;;;;;;47.13;20.05;;;7.50;99.90;;;11.72;100.00;98743.47;5029791;28;20386;-81
2024/02/12 00:05:29;;;;;;;44.08;20.42;;;7.50;99.90;;;11.84;100.00;98748.66;5029076;28;20784;-78
2024/02/12 00:07:55;;;;;;;51.75;20.15;;;7.60;99.90;;;11.69;100.00;98748.66;5029814;28;20443;-81
2024/02/12 00:10:22;;;;;;;40.90;18.73;;;7.50;99.90;;;11.66;100.00;98744.56;5030179;28;20038;-80
2024/02/12 00:12:52;;;;;;;46.22;19.70;;;7.50;99.90;;;11.66;100.00;98742.63;5029982;28;20040;-81
2024/02/12 00:15:21;;;;;;;42.13;19.38;;;7.50;99.90;;;11.53;100.00;98745.88;5024004;28;20040;-80
2024/02/12 00:17:47;;;;;;;45.78;19.25;;;7.60;99.90;;;11.49;100.00;98744.78;5030036;28;20087;-81
2024/02/12 00:20:12;;;;;;;44.97;19.42;;;7.50;99.90;;;11.51;100.00;98751.59;5030111;28;20474;-80
2024/02/12 00:22:41;;;;;;;41.70;18.80;;;7.50;99.90;;;11.58;100.00;98756.81;5030176;28;20034;-80
2024/02/12 00:25:08;;;;;;;41.22;18.10;;;7.50;99.90;;;11.58;100.00;98758.75;5028986;28;20481;-79
2024/02/12 00:27:37;;;;;;;36.20;17.85;;;7.50;99.90;;;11.75;100.00;98750.31;5029503;28;20470;-82
2024/02/12 00:30:04;;;;;;;44.10;18.98;;;7.50;99.90;;;11.61;100.00;98752.75;5029316;28;20037;-81
2024/02/12 00:32:31;;;;;;;40.15;17.95;;;7.50;99.90;;;11.71;100.00;98757.41;4996834;28;20037;-81
2024/02/12 00:34:57;;;;;;;43.40;18.02;;;7.50;99.90;;;11.69;100.00;98754.13;5014579;28;20061;-81
2024/02/12 00:37:25;;;;;;;38.28;16.30;;;7.50;99.90;;;11.55;100.00;98746.44;5029410;28;20120;-81
2024/02/12 00:39:52;;;;;;;40.67;18.15;;;7.50;99.90;;;11.71;100.00;98757.41;5024432;28;20103;-81
2024/02/12 00:42:19;;;;;;;38.45;16.75;;;7.60;99.90;;;11.49;100.00;98752.97;5011713;28;20501;-81
2024/02/12 00:44:45;;;;;;;38.17;17.92;;;7.50;99.90;;;11.63;100.00;98759.56;5028858;28;20120;-81
2024/02/12 00:47:11;;;;;;;33.50;17.00;;;7.60;99.90;;;11.62;100.00;98759.84;5029562;28;20069;-81
2024/02/12 00:49:40;;;;;;;37.08;17.20;;;7.60;99.90;;;11.66;100.00;98759.00;5028916;28;20119;-81
2024/02/12 00:52:07;;;;;;;37.22;17.17;;;7.50;99.90;;;11.66;100.00;98763.66;5029534;28;20445;-80
2024/02/12 00:54:35;;;;;;;35.47;17.42;;;7.60;99.90;;;11.59;100.00;98769.38;5012590;28;20045;-80
2024/02/12 00:57:02;;;;;;;34.75;16.60;;;7.50;99.90;;;11.52;100.00;98763.38;5024828;28;20049;-81
2024/02/12 00:59:27;;;;;;;34.58;17.05;;;7.60;99.90;;;11.57;100.00;98771.56;5011798;28;20053;-80
2024/02/12 01:01:53;;;;;;;35.50;16.55;;;7.60;99.90;;;11.59;100.00;98772.13;5030079;28;20037;-81
2024/02/12 01:04:19;;;;;;;33.13;17.27;;;7.60;99.90;;;11.64;100.00;98761.19;5028820;28;20347;-81
2024/02/12 01:06:45;;;;;;;30.95;16.10;;;7.60;99.90;;;11.60;100.00;98764.75;5029245;28;20531;-81
2024/02/12 01:09:14;;;;;;;29.25;15.75;;;7.60;99.90;;;11.66;100.00;98764.47;5002040;28;20045;-81
2024/02/12 01:11:42;;;;;;;32.35;15.38;;;7.50;99.90;;;11.55;100.00;98768.28;5028874;28;20049;-79
2024/02/12 01:14:08;;;;;;;31.48;15.65;;;7.50;99.90;;;11.70;100.00;98774.88;5029204;28;20095;-82
2024/02/12 01:16:34;;;;;;;32.63;14.70;;;7.60;99.90;;;11.80;100.00;98780.34;5029506;28;20121;-80
2024/02/12 01:19:00;;;;;;;31.65;14.80;;;7.60;99.90;;;11.87;100.00;98774.63;5029344;28;20041;-81
2024/02/12 01:21:26;;;;;;;30.20;14.70;;;7.60;99.90;;;11.84;100.00;98776.00;5029720;28;20481;-81
2024/02/12 01:23:52;;;;;;;27.08;14.07;;;7.60;99.90;;;11.92;100.00;98786.38;5029501;28;20038;-81
2024/02/12 01:26:18;;;;;;;26.42;13.75;;;7.60;99.90;;;11.98;100.00;98786.41;5015822;28;20045;-81
2024/02/12 01:28:44;;;;;;;31.70;13.52;;;7.60;99.90;;;11.86;100.00;98782.00;5029548;28;20056;-81
2024/02/12 01:31:18;;;;;;;25.17;13.32;;;7.60;99.90;;;11.88;100.00;98790.75;5010578;28;20049;-80
2024/02/12 01:33:46;;;;;;;25.65;12.35;;;7.60;99.90;;;11.83;100.00;98793.47;5011834;28;20717;-80
2024/02/12 01:36:13;;;;;;;22.30;11.63;;;7.60;99.90;;;11.91;100.00;98787.47;5029153;28;20138;-80
2024/02/12 01:38:40;;;;;;;23.60;13.40;;;7.60;99.90;;;11.83;100.00;98789.94;5028695;28;20041;-80
2024/02/12 01:41:06;;;;;;;23.60;12.48;;;7.60;99.90;;;12.09;100.00;98782.59;5028953;28;22145;-80
2024/02/12 01:43:36;;;;;;;27.88;12.88;;;7.60;99.90;;;12.12;100.00;98789.47;5028907;28;20473;-80
2024/02/12 01:46:06;;;;;;;20.48;10.88;;;7.60;99.90;;;12.08;100.00;98794.63;5010773;28;20060;-81
2024/02/12 01:48:36;;;;;;;21.10;11.60;;;7.60;99.90;;;12.01;100.00;98783.97;5029327;28;20034;-80
2024/02/12 01:51:09;;;;;;;22.50;11.45;;;7.60;99.90;;;12.03;100.00;98795.44;5011250;28;20069;-81
2024/02/12 01:53:40;;;;;;;21.05;10.70;;;7.70;99.90;;;12.19;100.00;98800.94;5011656;28;20033;-80
2024/02/12 01:56:08;;;;;;;20.65;11.20;;;7.60;99.90;;;12.22;100.00;98803.13;5028119;28;20137;-80
2024/02/12 01:58:37;;;;;;;;;;;7.60;99.90;;;12.18;100.00;98807.50;5030159;28;20116;-81
2024/02/12 02:01:02;;;;;;;20.35;10.88;;;7.60;99.90;;;12.09;100.00;98801.75;5032427;28;20011;-80
2024/02/12 02:03:30;;;;;;;21.50;10.70;;;7.60;99.90;;;11.85;100.00;98794.03;5013765;28;20128;-81
2024/02/12 02:05:56;;;;;;;21.27;10.87;;;7.60;99.90;;;11.80;100.00;98804.94;5033170;28;20041;-81
2024/02/12 02:08:36;;;;;;;20.08;11.07;;;7.60;99.90;;;11.80;100.00;98804.94;5015221;28;20757;-80
2024/02/12 02:11:11;;;;;;;22.35;10.00;;;7.60;99.90;;;11.87;100.00;98802.78;5029468;28;20033;-82
2024/02/12 02:13:42;;;;;;;18.90;10.02;;;7.60;99.90;;;11.78;100.00;98804.41;5027952;28;20124;-80
2024/02/12 02:16:15;;;;;;;19.15;9.55;;;7.60;99.90;;;11.78;100.00;98810.66;5014361;28;20038;-80
2024/02/12 02:18:46;;;;;;;23.15;10.95;;;7.60;99.90;;;11.70;100.00;98810.41;5028127;28;20474;-81
2024/02/12 02:21:12;;;;;;;18.23;10.32;;;7.60;99.90;;;11.60;100.00;98813.91;5030570;28;20042;-80
2024/02/12 02:23:41;;;;;;;21.45;10.20;;;7.60;99.90;;;11.63;100.00;98810.66;5032057;28;20378;-81
2024/02/12 02:26:08;;;;;;;16.92;10.02;;;7.60;99.90;;;11.60;100.00;98809.25;5032261;28;20131;-80
2024/02/12 02:28:34;;;;;;;19.63;9.85;;;7.60;99.90;;;11.59;100.00;98813.09;5031161;28;20034;-81
2024/02/12 02:31:00;;;;;;;19.27;8.98;;;7.60;99.90;;;11.54;100.00;98828.63;5032357;28;20052;-81
2024/02/12 02:33:26;;;;;;;17.95;9.32;;;7.60;99.90;;;11.57;100.00;98815.25;5030849;28;20041;-81
2024/02/12 02:35:52;;;;;;;20.35;10.15;;;7.60;99.90;;;11.74;100.00;98819.69;5031885;28;20041;-81
2024/02/12 02:38:18;;;;;;;17.50;9.23;;;7.60;99.90;;;11.79;100.00;98816.97;5031052;28;20048;-81
2024/02/12 02:40:44;;;;;;;21.13;9.43;;;7.60;99.90;;;11.66;100.00;98813.63;5033628;28;20038;-81
2024/02/12 02:43:10;;;;;;;19.48;10.15;;;7.50;99.90;;;11.51;100.00;98817.16;5015068;28;20635;-81
2024/02/12 02:45:36;;;;;;;21.08;9.52;;;7.50;99.90;;;11.52;100.00;98828.91;5028892;28;20452;-77
2024/02/12 02:48:02;;;;;;;19.48;9.50;;;7.50;99.90;;;11.49;100.00;98826.72;5009240;28;20072;-78
2024/02/12 02:50:29;;;;;;;19.40;10.20;;;7.50;99.90;;;11.42;100.00;98823.41;5025533;28;20033;-78
2024/02/12 02:52:59;;;;;;;19.77;9.33;;;7.60;99.90;;;11.43;100.00;98825.88;5026323;28;20043;-77
2024/02/12 02:55:28;;;;;;;17.42;9.38;;;7.60;99.90;;;11.49;100.00;98827.53;5029444;28;20488;-78
2024/02/12 02:57:54;;;;;;;15.43;8.90;;;7.60;99.90;;;11.47;100.00;98821.50;5030644;28;20052;-78
2024/02/12 03:00:20;;;;;;;20.60;9.55;;;7.60;99.90;;;11.57;100.00;98826.19;5030857;28;20436;-78
2024/02/12 03:02:46;;;;;;;18.42;9.40;;;7.60;99.90;;;11.78;100.00;98826.25;5031225;28;20095;-77
2024/02/12 03:05:12;;;;;;;16.55;8.68;;;7.60;99.90;;;11.69;100.00;98825.16;5027128;28;20037;-78
2024/02/12 03:07:47;;;;;;;18.67;9.82;;;7.60;99.90;;;11.79;100.00;98833.34;5021376;28;20713;-78
2024/02/12 03:10:14;;;;;;;16.58;9.00;;;7.60;99.90;;;11.65;100.00;98836.59;5029618;28;20451;-78
2024/02/12 03:12:41;;;;;;;17.10;9.27;;;7.60;99.90;;;11.73;100.00;98834.44;5046530;28;20116;-79
2024/02/12 03:15:19;;;;;;;20.63;9.60;;;7.60;99.90;;;11.62;100.00;98839.03;5028596;28;20125;-78
2024/02/12 03:17:46;;;;;;;18.35;9.57;;;7.50;99.90;;;11.47;100.00;98843.34;5031160;28;20366;-78
2024/02/12 03:20:14;;;;;;;19.15;10.43;;;7.50;99.90;;;11.43;100.00;98838.72;5025578;28;20404;-78
2024/02/12 03:22:41;;;;;;;21.98;12.13;;;7.50;99.90;;;11.48;100.00;98847.72;5031645;28;20424;-78
2024/02/12 03:25:10;;;;;;;20.02;10.10;;;7.50;99.90;;;11.63;100.00;98841.50;5030241;28;20044;-79
2024/02/12 03:27:37;;;;;;;17.60;9.65;;;7.50;99.90;;;11.60;100.00;98843.97;5013450;28;20037;-78
2024/02/12 03:30:09;;;;;;;19.23;10.73;;;7.40;99.90;;;11.48;100.00;98849.66;5022131;28;20097;-79
2024/02/12 03:32:38;;;;;;;21.45;11.25;;;7.40;99.90;;;11.55;100.00;98844.75;5013367;28;20052;-78
2024/02/12 03:35:04;;;;;;;22.38;10.60;;;7.30;99.90;;;11.30;100.00;98843.56;5029896;28;20121;-78
2024/02/12 03:37:30;;;;;;;22.52;11.75;;;7.20;99.90;;;11.23;100.00;98848.44;5029995;28;20047;-77
2024/02/12 03:39:56;;;;;;;19.48;11.15;;;7.20;99.90;;;11.39;100.00;98857.53;5028891;28;20412;-77
2024/02/12 03:42:27;;;;;;;24.23;12.73;;;7.20;99.90;;;11.43;100.00;98852.38;5029749;28;20045;-77
2024/02/12 03:44:54;;;;;;;23.70;11.85;;;7.30;99.90;;;11.44;100.00;98856.72;5030484;28;20056;-78
2024/02/12 03:47:27;;;;;;;24.25;13.10;;;7.30;99.90;;;11.59;100.00;98864.16;5029200;28;20033;-78
2024/02/12 04:00:54;;;;;;;25.08;13.57;;;7.40;99.90;;;11.57;100.00;98875.34;5029149;28;20044;-78
2024/02/12 04:03:20;;;;;;;26.30;14.23;;;7.40;99.90;;;11.45;100.00;98877.50;5012207;28;20045;-79
2024/02/12 04:05:46;;;;;;;22.02;14.48;;;7.40;99.90;;;11.57;100.00;98883.53;5028401;28;20104;-78
2024/02/12 04:08:11;;;;;;;27.50;14.70;;;7.50;99.90;;;11.41;100.00;98885.38;5030195;28;20179;-78
2024/02/12 04:10:37;;;;;;;23.02;14.20;;;7.50;99.90;;;11.59;100.00;98886.81;5030310;28;20041;-78
2024/02/12 04:13:05;;;;;;;29.80;15.50;;;7.50;99.90;;;11.56;100.00;98887.34;5029880;28;20064;-78
2024/02/12 04:15:31;;;;;;;27.00;15.32;;;7.50;99.90;;;11.30;100.00;98898.16;5030056;28;20041;-78
2024/02/12 04:17:57;;;;;;;26.10;15.63;;;7.50;99.90;;;11.42;100.00;98910.78;5029800;28;20041;-78
2024/02/12 04:20:23;;;;;;;25.52;15.50;;;7.50;99.90;;;11.46;100.00;98907.25;5028721;28;20053;-78
2024/02/12 04:22:52;;;;;;;25.05;14.60;;;7.50;99.90;;;11.46;100.00;98898.25;5029267;28;20075;-77
2024/02/12 04:25:19;;;;;;;28.33;15.85;;;7.60;99.90;;;11.51;100.00;98909.19;5029528;28;20040;-78
2024/02/12 04:27:45;;;;;;;27.80;15.07;;;7.60;99.90;;;11.51;100.00;98904.53;5029436;28;20038;-77
2024/02/12 04:30:12;;;;;;;28.45;15.07;;;7.60;99.90;;;11.69;100.00;98904.38;5028711;28;20047;-78
2024/02/12 04:32:38;;;;;;;23.63;14.77;;;7.60;99.90;;;11.49;100.00;98914.09;5010954;28;20058;-78
2024/02/12 04:35:05;;;;;;;26.13;14.73;;;7.60;99.90;;;11.33;100.00;98922.19;5029315;28;20045;-78
2024/02/12 04:37:33;;;;;;;22.57;13.83;;;7.60;99.90;;;11.25;100.00;98914.50;5029467;28;20215;-78
2024/02/12 04:39:59;;;;;;;25.20;14.20;;;7.70;99.90;;;11.43;100.00;98918.69;5028357;28;20042;-78
2024/02/12 04:42:26;;;;;;;25.40;14.48;;;7.70;99.90;;;11.56;100.00;98927.53;5029119;28;20481;-78
2024/02/12 04:44:52;;;;;;;22.88;13.98;;;7.70;99.90;;;11.34;100.00;98926.56;5012039;28;20037;-78
2024/02/12 04:47:18;;;;;;;26.10;14.60;;;7.60;99.90;;;11.33;100.00;98932.31;5011820;28;20049;-78
2024/02/12 04:49:43;;;;;;;23.45;14.25;;;7.60;99.90;;;11.26;100.00;98935.25;5028610;28;20038;-78
2024/02/12 04:52:09;;;;;;;28.30;14.35;;;7.60;99.90;;;11.20;100.00;98931.66;5029540;28;20097;-78
2024/02/12 04:54:36;;;;;;;25.88;15.23;;;7.50;99.90;;;11.19;100.00;98938.22;5028441;28;20040;-78
2024/02/12 04:57:02;;;;;;;24.97;14.17;;;7.50;99.90;;;11.25;100.00;98940.97;5029484;28;20037;-78
2024/02/12 04:59:28;;;;;;;26.60;14.25;;;7.50;99.90;;;11.01;100.00;98946.84;5028967;28;20037;-77
2024/02/12 05:01:54;;;;;;;27.33;14.40;;;7.50;99.90;;;11.04;100.00;98938.94;5029029;28;20042;-78
2024/02/12 05:04:20;;;;;;;25.83;14.00;;;7.50;99.90;;;11.21;100.00;98948.88;5028199;28;20084;-77
2024/02/12 05:06:46;;;;;;;22.38;14.35;;;7.50;99.90;;;11.10;100.00;98941.69;5026179;28;20060;-78
2024/02/12 05:09:13;;;;;;;22.95;13.20;;;7.50;99.90;;;11.24;100.00;98948.34;5028391;28;20474;-78
2024/02/12 05:11:38;;;;;;;28.00;14.15;;;7.40;99.90;;;11.13;100.00;98955.66;5029149;28;20116;-78
2024/02/12 05:14:05;;;;;;;30.60;14.30;;;7.30;99.90;;;10.91;100.00;98958.50;5022970;28;20053;-78
2024/02/12 05:16:32;;;;;;;27.35;13.88;;;7.20;99.90;;;10.89;100.00;98963.38;5028925;28;20100;-78
2024/02/12 05:24:28;;;;;;;27.25;14.40;;;7.10;99.90;;;10.91;100.00;98958.50;5023991;28;20038;-78
2024/02/12 05:26:56;;;;;;;28.02;13.80;;;6.90;99.90;;;10.96;100.00;98963.97;5022980;28;20394;-77
2024/02/12 05:29:23;;;;;;;24.02;13.52;;;6.80;99.90;;;10.88;100.00;98967.19;5032637;28;20041;-77
2024/02/12 05:31:50;;;;;;;25.88;14.20;;;6.80;99.90;;;10.72;100.00;98968.94;5028213;28;20131;-77
2024/02/12 05:34:20;;;;;;;27.40;13.35;;;6.80;99.90;;;10.26;100.00;98956.50;5008004;28;20041;-78
2024/02/12 05:36:56;;;;;;;33.15;14.02;;;6.80;99.90;;;10.46;100.00;98972.25;5015410;28;20231;-78
2024/02/12 05:39:22;;;;;;;29.30;14.93;;;6.90;99.90;;;10.34;100.00;98974.25;5031929;28;20049;-78
2024/02/12 05:41:49;;;;;;;33.35;15.18;;;7.00;99.90;;;10.75;100.00;98969.25;5015625;28;20572;-78
2024/02/12 05:44:16;;;;;;;32.15;14.90;;;7.00;99.90;;;10.85;100.00;98978.59;5032492;28;20141;-78
2024/02/12 05:46:42;;;;;;;26.35;13.75;;;7.00;99.90;;;10.94;100.00;98987.97;5014102;28;20121;-76
2024/02/12 05:49:09;;;;;;;29.00;14.30;;;7.00;99.90;;;10.98;100.00;98993.72;5032348;28;20549;-77
2024/02/12 05:51:39;;;;;;;28.13;14.98;;;7.10;99.90;;;10.90;100.00;98984.13;5032095;28;20033;-76
2024/02/12 05:54:05;;;;;;;34.28;14.50;;;7.00;99.90;;;11.01;100.00;98995.94;5031312;28;20112;-77
2024/02/12 05:56:31;;;;;;;27.35;14.32;;;7.10;99.90;;;11.01;100.00;98999.50;5014107;28;20042;-77
2024/02/12 05:58:57;;;;;;;30.45;15.73;;;7.10;99.90;;;10.94;100.00;98999.69;5032439;28;20048;-78
2024/02/12 06:01:24;;;;;;;28.98;14.30;;;7.20;99.90;;;11.26;100.00;99008.13;5032399;28;20033;-79
2024/02/12 06:03:50;;;;;;;35.40;15.05;;;7.20;99.90;;;11.32;100.00;98998.91;5031561;28;20034;-79
2024/02/12 06:06:16;;;;;;;38.47;16.13;;;7.20;99.90;;;11.32;100.00;98999.72;5029880;28;21268;-78
2024/02/12 06:08:42;;;;;;;32.58;15.02;;;7.20;99.90;;;11.46;100.00;98999.28;5032088;28;20116;-79
2024/02/12 06:11:09;;;;;;;29.00;13.85;;;7.30;99.90;;;11.55;100.00;99016.00;5014318;28;20033;-80
2024/02/12 06:13:34;;;;;;;31.70;14.60;;;7.30;99.90;;;11.36;100.00;99014.50;5032334;28;20385;-79
2024/02/12 06:16:00;;;;;;;31.92;14.98;;;7.30;99.90;;;11.48;100.00;99024.41;5031518;28;20033;-80
2024/02/12 06:18:27;;;;;;;30.73;15.70;;;7.30;99.90;;;11.41;100.00;99027.38;5031703;28;20048;-79
2024/02/12 06:20:53;;;;;;;30.55;15.45;;;7.40;99.90;;;11.45;100.00;99031.22;5015038;28;20091;-78
2024/02/12 06:23:19;;;;;;;36.35;16.08;;;7.40;99.90;;;11.24;100.00;99019.31;5026584;28;20045;-80
2024/02/12 06:25:45;;;;;;;34.35;15.63;;;7.40;99.90;;;11.32;100.00;99034.41;5031588;28;20592;-79
2024/02/12 06:28:11;;;;;;;30.65;16.05;;;7.40;99.90;;;11.53;100.00;99032.63;5029713;28;20057;-77
2024/02/12 06:30:37;;;;;;;31.92;15.57;;;7.40;99.90;;;11.63;100.00;99038.16;5005898;28;20171;-76
2024/02/12 06:33:03;;;;;;;34.22;15.50;;;7.50;99.90;;;11.57;100.00;99041.94;5030869;28;20033;-77
2024/02/12 06:35:30;;;;;;;31.60;15.98;;;7.50;99.90;;;11.54;100.00;99050.66;5013214;28;20045;-77
2024/02/12 06:37:56;;;;;;;32.78;16.15;;;7.50;99.90;;;11.61;100.00;99047.72;5033929;28;20065;-79
2024/02/12 06:40:22;;;;;;;33.20;15.48;;;7.50;99.90;;;11.22;100.00;99046.06;5031117;28;20504;-79
2024/02/12 06:42:49;;;;;;;33.25;15.77;;;7.50;99.90;;;11.41;100.00;99041.00;5030215;28;20021;-78
2024/02/12 06:45:16;;;;;;;34.70;17.13;;;7.60;99.90;;;11.35;100.00;99053.78;5032205;28;20527;-79
2024/02/12 06:47:45;;;;;;;35.45;16.98;;;7.60;99.90;;;11.42;100.00;99059.03;5031396;28;20157;-81
2024/02/12 06:50:12;;;;;;;34.92;17.50;;;7.60;99.90;;;11.27;100.00;99059.75;5030755;28;20494;-80
2024/02/12 06:52:39;;;;;;;38.67;17.38;;;7.60;99.90;;;11.35;100.00;99064.72;5031013;28;20037;-80
2024/02/12 06:55:10;;;;;;;37.13;18.37;;;7.60;99.90;;;10.62;100.00;99062.41;5012923;28;20347;-80
2024/02/12 06:57:36;;;;;;;35.85;17.88;;;7.60;99.90;;;11.13;100.00;99063.97;5009263;28;20045;-79
2024/02/12 07:00:07;;;;;;;36.22;17.63;;;7.60;99.90;;;11.42;100.00;99075.44;5030574;28;20583;-80
2024/02/12 07:02:34;;;;;;;35.00;18.25;;;7.60;99.90;;;11.04;100.00;99077.28;5030898;28;20040;-79
2024/02/12 07:05:04;;;;;;;36.97;19.73;;;7.60;99.90;;;10.63;100.00;99070.31;5027696;28;20117;-79
2024/02/12 07:07:33;;;;;;;35.22;17.42;;;7.60;99.90;;;11.25;100.00;99088.38;5031573;28;20052;-78
2024/02/12 07:10:00;;;;;;;40.65;19.45;;;7.70;99.90;;;11.08;100.00;99098.34;5031621;28;20362;-79
2024/02/12 07:12:26;;;;;;;42.67;19.50;;;7.70;99.90;;;11.07;100.00;99102.13;5030051;28;20041;-80
2024/02/12 07:14:52;;;;;;;40.30;19.85;;;7.70;99.90;;;10.85;100.00;99109.53;5030889;28;20075;-80
2024/02/12 07:17:21;;;;;;;39.67;19.27;;;7.70;99.90;;;11.06;100.00;99105.94;5030661;28;20400;-79
2024/02/12 07:19:49;;;;;;;39.63;19.60;;;7.70;99.90;;;10.61;100.00;99109.84;5013862;28;20323;-78
2024/02/12 07:22:16;;;;;;;40.28;19.80;;;7.80;99.90;;;10.82;100.00;99119.09;5031427;28;20037;-80
2024/02/12 07:24:48;;;;;;;38.22;19.38;;;7.70;99.90;;;10.43;100.00;99121.88;5030393;28;20029;-80
2024/02/12 07:27:21;;;;;;;37.63;19.00;;;7.70;99.90;;;10.72;100.00;99121.69;5031215;28;20373;-80
2024/02/12 07:29:47;;;;;;;36.42;18.83;;;7.70;99.90;;;10.72;100.00;99130.69;5013939;28;20072;-80
2024/02/12 07:32:14;;;;;;;37.88;19.23;;;7.70;99.90;;;11.21;100.00;99137.22;5031218;28;20040;-80
2024/02/12 07:34:41;;;;;;;41.40;20.90;;;7.70;99.90;;;9.95;100.00;99146.00;5032387;28;20029;-80
2024/02/12 07:37:07;;;;;;;35.10;18.73;;;7.70;99.90;;;10.57;100.00;99119.59;5031983;28;20040;-80
2024/02/12 07:39:34;;;;;;;36.88;19.23;;;7.70;99.90;;;10.75;100.00;99143.00;5031242;28;20034;-79
2024/02/12 07:42:00;;;;;;;36.20;19.70;;;7.70;99.90;;;11.05;100.00;99145.25;5030413;28;20064;-80
2024/02/12 07:44:26;;;;;;;43.15;18.92;;;7.70;99.90;;;11.16;100.00;99151.63;5032038;28;20034;-81
2024/02/12 07:46:52;;;;;;;39.25;18.95;;;7.70;99.90;;;11.08;100.00;99155.63;5033150;28;20042;-80
2024/02/12 07:49:19;;;;;;;35.63;19.23;;;7.70;99.90;;;10.46;100.00;99154.94;5030689;28;20116;-80
2024/02/12 07:51:47;;;;;;;35.05;18.27;;;7.70;99.90;;;10.42;100.00;99164.69;5030852;28;20048;-79
2024/02/12 07:54:13;;;;;;;33.28;18.17;;;7.70;99.90;;;11.10;100.00;99160.03;5010557;28;20038;-80
2024/02/12 07:56:41;;;;;;;34.83;17.85;;;7.70;99.90;;;11.00;100.00;99161.56;5028713;28;20053;-78
2024/02/12 07:59:07;;;;;;;35.63;18.70;;;7.60;99.90;;;10.53;100.00;99173.00;5030762;28;20072;-78
2024/02/12 08:01:33;;;;;;;31.83;17.40;;;7.70;99.90;;;11.04;100.00;99173.63;5030732;28;20455;-79
2024/02/12 08:03:59;;;;;;;31.92;16.92;;;7.70;99.90;;;10.96;100.00;99167.78;5030900;28;20114;-81
2024/02/12 08:06:24;;;;;;;34.67;16.58;;;7.70;99.90;;;11.14;100.00;99172.06;5030070;28;20053;-80
2024/02/12 08:08:50;;;;;;;31.33;17.55;;;7.70;99.90;;;11.09;100.00;99164.66;5029491;28;20037;-79
2024/02/12 08:11:17;;;;;;;33.00;17.15;;;7.70;99.90;;;11.22;100.00;99171.63;5030160;28;20037;-78
2024/02/12 08:13:45;;;;;;;34.00;17.63;;;7.80;99.90;;;11.47;100.00;99183.88;5025658;28;20077;-81
2024/02/12 08:16:11;;;;;;;31.58;17.90;;;7.80;99.90;;;11.73;100.00;99175.91;5013140;28;20077;-81
2024/02/12 08:18:37;;;;;;;29.73;16.00;;;7.90;99.90;;;12.01;100.00;99188.44;5030600;28;20025;-81
2024/02/12 08:21:04;;;;;;;30.52;16.50;;;8.00;99.90;;;11.65;100.00;99190.88;5029787;28;20040;-80
2024/02/12 08:23:29;;;;;;;29.50;16.42;;;8.10;99.90;;;11.88;100.00;99199.81;5012313;28;20465;-79
2024/02/12 08:25:55;;;;;;;32.30;16.67;;;8.20;99.90;;;11.90;100.00;99203.91;5030488;28;20045;-79
2024/02/12 08:28:24;;;;;;;26.30;13.95;;;8.30;99.90;;;11.81;100.00;99213.69;5029844;28;20037;-80
2024/02/12 08:30:51;;;;;;;25.55;15.68;;;8.30;99.90;;;12.15;100.00;99216.16;5030528;28;20045;-80
2024/02/12 08:33:20;;;;;;;29.58;16.42;;;8.40;99.90;;;11.52;100.00;99205.78;5012489;28;20035;-80
2024/02/12 08:35:46;;;;;;;27.17;15.23;;;8.40;99.90;;;11.86;100.00;99216.44;5030913;28;20072;-78
2024/02/12 08:38:12;;;;;;;28.25;15.65;;;8.50;99.90;;;11.87;100.00;99220.84;5012421;28;20063;-79
2024/02/12 08:40:38;;;;;;;27.52;15.48;;;8.50;99.90;;;11.48;100.00;99224.56;5029257;28;20096;-79
2024/02/12 08:43:04;;;;;;;27.77;15.88;;;8.50;99.90;;;11.71;100.00;99230.00;5029838;28;20033;-79
2024/02/12 08:45:31;;;;;;;25.65;15.18;;;8.50;99.90;;;11.99;100.00;99236.25;5029004;28;20041;-80
2024/02/12 08:47:57;;;;;;;28.63;14.52;;;8.50;99.90;;;11.02;100.00;99246.72;5029582;28;20527;-80
2024/02/12 08:50:24;;;;;;;26.08;14.85;;;8.40;99.90;;;11.84;100.00;99242.41;5044164;28;20124;-78
2024/02/12 08:52:49;;;;;;;29.13;15.77;;;8.40;99.90;;;11.56;100.00;99244.34;5023298;28;20037;-79
2024/02/12 08:55:16;;;;;;;26.83;15.55;;;8.40;99.90;;;11.50;100.00;99244.25;5011092;28;20040;-80
2024/02/12 08:57:42;;;;;;;27.52;15.05;;;8.30;99.90;;;11.51;100.00;99254.09;5030325;28;20098;-80
2024/02/12 09:00:10;;;;;;;26.27;14.52;;;8.30;99.90;;;11.33;100.00;99251.72;5029967;28;20458;-79
2024/02/12 09:02:36;;;;;;;24.90;15.13;;;8.30;99.90;;;12.03;100.00;99254.59;5030155;28;20057;-79
2024/02/12 09:05:08;;;;;;;31.42;15.40;;;8.40;99.90;;;11.88;100.00;99257.19;5030965;28;20053;-79
2024/02/12 09:07:34;;;;;;;29.10;15.43;;;8.40;99.90;;;11.71;100.00;99258.13;5025584;28;20045;-78
2024/02/12 09:10:00;;;;;;;31.83;16.33;;;8.50;99.90;;;11.58;100.00;99264.00;5033306;28;20037;-78
2024/02/12 09:12:27;;;;;;;25.08;15.35;;;8.40;99.90;;;11.37;100.00;99264.59;5033819;28;20054;-78
2024/02/12 09:14:53;;;;;;;27.38;15.90;;;8.50;99.90;;;11.36;100.00;99262.13;5033861;28;20033;-79
2024/02/12 09:17:18;;;;;;;29.92;15.43;;;8.40;99.90;;;11.60;100.00;99270.03;5016534;28;20045;-78
2024/02/12 09:19:45;;;;;;;27.17;15.35;;;8.50;99.90;;;10.99;100.00;99271.81;5030062;28;20496;-79
2024/02/12 09:22:11;;;;;;;27.02;15.15;;;8.40;99.90;;;11.50;100.00;99282.50;5032182;28;20029;-78
2024/02/12 09:24:39;;;;;;;28.88;15.63;;;8.40;99.90;;;11.30;100.00;99291.28;5033298;28;20044;-79
2024/02/12 09:27:05;;;;;;;29.95;15.25;;;8.40;99.90;;;11.52;100.00;99279.50;5016106;28;20393;-78
2024/02/12 09:29:31;;;;;;;30.00;16.27;;;8.40;99.90;;;11.84;100.00;99300.59;5033841;28;20041;-80
2024/02/12 09:31:56;;;;;;;29.45;16.45;;;8.50;99.90;;;11.64;100.00;99298.50;5033457;28;20045;-76
2024/02/12 09:34:22;;;;;;;28.67;15.07;;;8.40;99.90;;;11.48;100.00;99313.88;5033203;28;20175;-78
2024/02/12 09:36:48;;;;;;;27.60;15.20;;;8.40;99.90;;;11.54;100.00;99307.41;5032495;28;20048;-78
2024/02/12 09:39:15;;;;;;;27.52;14.75;;;8.40;99.90;;;11.45;100.00;99314.41;5032685;28;20038;-78
2024/02/12 09:41:47;;;;;;;27.03;14.93;;;8.40;99.90;;;11.29;100.00;99305.19;5016284;28;20038;-77
2024/02/12 09:44:23;;;;;;;28.33;14.15;;;8.40;99.90;;;11.03;100.00;99311.16;5035855;28;20291;-77
2024/02/12 09:46:54;;;;;;;23.17;12.85;;;8.40;99.90;;;11.55;100.00;99314.50;5032519;28;20037;-77
2024/02/12 09:49:20;;;;;;;27.92;15.00;;;8.30;99.90;;;11.90;100.00;99313.22;5032271;28;20046;-78
2024/02/12 09:51:49;;;;;;;27.02;14.88;;;8.50;99.90;;;11.91;100.00;99311.31;5033384;28;20033;-78
2024/02/12 09:54:17;;;;;;;26.90;14.38;;;8.60;99.90;;;12.42;100.00;99321.09;5014565;28;20080;-79
2024/02/12 09:56:43;;;;;;;24.65;14.20;;;8.80;99.90;;;11.17;100.00;99321.72;5029304;28;20038;-80
2024/02/12 09:59:09;;;;;;;23.05;13.45;;;8.80;99.90;;;11.65;100.00;99322.00;5032861;28;20041;-82
2024/02/12 10:01:38;;;;;;;27.83;14.95;;;9.00;99.90;;;12.67;100.00;99334.13;5012380;28;20390;-79
2024/02/12 10:04:04;;;;;;;24.33;13.90;;;9.30;99.90;;;13.68;100.00;99325.09;5031471;28;20045;-78
2024/02/12 10:06:30;;;;;;;25.60;14.70;;;9.80;99.90;;;12.89;100.00;99335.91;5015086;28;20058;-78
2024/02/12 10:09:07;;;;;;;23.65;13.70;;;10.10;99.90;;;12.60;100.00;99333.53;5011049;28;20366;-79
2024/02/12 10:11:33;;;;;;;24.10;14.00;;;10.00;99.90;;;11.83;100.00;99341.84;5028927;28;20045;-81
2024/02/12 10:14:04;;;;;;;22.83;13.50;;;9.50;99.90;;;11.87;100.00;99338.34;5015122;28;20041;-81
2024/02/12 10:16:33;;;;;;;19.88;12.10;;;9.30;99.90;;;12.04;100.00;99331.97;5032508;28;20045;-81
2024/02/12 10:18:59;;;;;;;23.52;12.52;;;9.30;99.90;;;12.78;100.00;99343.22;5032726;28;20167;-82
2024/02/12 10:21:25;;;;;;;22.02;12.32;;;9.50;99.90;;;12.77;100.00;99339.69;5012071;28;20065;-82
2024/02/12 10:23:51;;;;;;;20.33;12.05;;;9.70;99.90;;;12.89;100.00;99347.69;5015645;28;20461;-82